Time;durP1;ratioP1;P1;durP2;ratioP2;P2;SDS_P1;SDS_P2;PMS_P1;PMS_P2;Temp;Humidity;BMP_temperature;BMP_pressure;BME280_temperature;BME280_humidity;BME280_pressure;Samples;Min_cycle;Max_cycle;Signal;HPM_P1;HPM_P2
2022/06/05 00:01:44;;;;;;;11.77;6.28;;;11.80;99.90;;;;;;5121325;27;19968;-71
2022/06/05 00:04:35;;;;;;;13.48;6.90;;;11.80;99.90;;;;;;5145967;27;20177;-71
2022/06/05 00:07:36;;;;;;;11.15;6.95;;;11.80;99.90;;;;;;5137237;27;20043;-71
2022/06/05 00:10:31;;;;;;;13.68;6.78;;;11.80;99.90;;;;;;5140116;27;20095;-71
2022/06/05 00:13:26;;;;;;;9.80;6.05;;;12.00;99.90;;;;;;5116925;27;20047;-71
2022/06/05 00:15:55;;;;;;;11.05;6.90;;;11.90;99.90;;;;;;5111899;27;20529;-72
2022/06/05 00:18:20;;;;;;;10.77;6.47;;;11.90;99.90;;;;;;5115569;27;20081;-71
2022/06/05 00:20:46;;;;;;;;;;;11.80;99.90;;;;;;5133460;27;20034;-71
2022/06/05 00:23:12;;;;;;;10.73;6.38;;;11.90;99.90;;;;;;5119330;27;19923;-71
2022/06/05 00:25:50;;;;;;;12.85;6.78;;;11.90;99.90;;;;;;5125903;27;20047;-71
2022/06/05 00:28:39;;;;;;;10.88;6.55;;;11.90;99.90;;;;;;5124697;27;20090;-71
2022/06/05 00:31:31;;;;;;;12.57;6.38;;;12.00;99.90;;;;;;5132390;27;20050;-71
2022/06/05 00:33:57;;;;;;;15.05;6.97;;;12.00;99.90;;;;;;5141899;27;20045;-71
2022/06/05 00:36:25;;;;;;;;;;;12.00;99.90;;;;;;5147782;27;20039;-71
2022/06/05 00:39:18;;;;;;;9.10;6.18;;;12.00;99.90;;;;;;5137458;27;19926;-71
2022/06/05 00:41:55;;;;;;;17.55;7.00;;;12.00;99.90;;;;;;5141469;27;20134;-71
2022/06/05 00:44:41;;;;;;;11.23;6.80;;;12.00;99.90;;;;;;5127512;27;20062;-71
2022/06/05 00:47:11;;;;;;;11.63;6.32;;;12.00;99.90;;;;;;5119259;27;20503;-72
2022/06/05 00:49:41;;;;;;;11.52;6.30;;;12.10;99.90;;;;;;5129674;27;20410;-72
2022/06/05 00:52:11;;;;;;;9.85;6.22;;;12.10;99.90;;;;;;5144704;27;20042;-72
2022/06/05 00:54:36;;;;;;;11.60;6.32;;;12.10;99.90;;;;;;5140247;27;20047;-72
2022/06/05 00:57:05;;;;;;;;;;;12.10;99.90;;;;;;5132835;27;20468;-71
2022/06/05 00:59:30;;;;;;;10.27;6.10;;;12.10;99.90;;;;;;5120609;27;19926;-72
2022/06/05 01:01:56;;;;;;;;;;;12.10;99.90;;;;;;5127919;27;20047;-71
2022/06/05 01:04:22;;;;;;;10.15;6.03;;;12.10;99.90;;;;;;5127901;27;19926;-71
2022/06/05 01:06:48;;;;;;;;;;;12.10;99.90;;;;;;5119174;27;20039;-71
2022/06/05 01:09:13;;;;;;;10.20;5.35;;;12.10;99.90;;;;;;5118728;27;19926;-72
2022/06/05 01:11:45;;;;;;;;;;;12.20;99.90;;;;;;5148673;27;20031;-72
2022/06/05 01:14:48;;;;;;;8.68;5.40;;;12.10;99.90;;;;;;5126120;27;19915;-71
2022/06/05 01:17:14;;;;;;;11.35;5.45;;;12.10;99.90;;;;;;5136960;27;20558;-71
2022/06/05 01:19:59;;;;;;;;;;;12.10;99.90;;;;;;5151822;27;20125;-72
2022/06/05 01:22:51;;;;;;;10.00;5.25;;;12.10;99.90;;;;;;5122964;27;20083;-71
2022/06/05 01:25:44;;;;;;;10.02;5.47;;;12.10;99.90;;;;;;5118763;27;20050;-72
2022/06/05 01:28:17;;;;;;;8.73;5.78;;;12.00;99.90;;;;;;5123027;27;20043;-72
2022/06/05 01:31:08;;;;;;;9.77;6.13;;;12.00;99.90;;;;;;5150002;27;20043;-72
2022/06/05 01:33:39;;;;;;;12.35;6.00;;;12.00;99.90;;;;;;5120460;27;20406;-72
2022/06/05 01:36:38;;;;;;;10.43;5.50;;;12.00;99.90;;;;;;5124663;27;20078;-72
2022/06/05 01:39:09;;;;;;;11.45;5.18;;;11.90;99.90;;;;;;5116708;27;20064;-72
2022/06/05 01:41:44;;;;;;;8.63;4.97;;;11.90;99.90;;;;;;5128897;27;20031;-71
2022/06/05 01:44:15;;;;;;;10.35;5.25;;;11.90;99.90;;;;;;5122456;27;20109;-72
2022/06/05 01:46:41;;;;;;;9.77;5.18;;;11.90;99.90;;;;;;5118133;27;20463;-72
2022/06/05 01:49:11;;;;;;;;;;;11.90;99.90;;;;;;5128092;27;20095;-72
2022/06/05 01:51:50;;;;;;;10.40;5.43;;;11.80;99.90;;;;;;5118619;27;19920;-72
2022/06/05 01:54:22;;;;;;;12.75;6.05;;;11.80;99.90;;;;;;5119430;27;20502;-71
2022/06/05 01:56:56;;;;;;;9.48;5.60;;;11.80;99.90;;;;;;5127441;27;20122;-71
2022/06/05 01:59:32;;;;;;;8.35;5.47;;;11.80;99.90;;;;;;5115777;27;20092;-71
2022/06/05 02:01:59;;;;;;;;;;;11.80;99.90;;;;;;5128361;27;20840;-71
2022/06/05 02:04:37;;;;;;;9.50;5.45;;;11.80;99.90;;;;;;5120096;27;20348;-71
2022/06/05 02:07:13;;;;;;;10.50;6.07;;;11.70;99.90;;;;;;5112626;28;20051;-71
2022/06/05 02:09:46;;;;;;;9.98;5.72;;;11.70;99.90;;;;;;5111077;28;20475;-71
2022/06/05 02:12:15;;;;;;;11.23;5.85;;;11.70;99.90;;;;;;5111253;28;20085;-71
2022/06/05 02:14:42;;;;;;;10.27;6.70;;;11.70;99.90;;;;;;5111338;28;20036;-72
2022/06/05 02:17:10;;;;;;;9.95;6.40;;;11.70;99.90;;;;;;5116233;27;20055;-71
2022/06/05 02:19:36;;;;;;;10.38;6.47;;;12.30;99.90;;;;;;5131844;27;20483;-71
2022/06/05 02:22:08;;;;;;;14.20;6.88;;;11.80;99.90;;;;;;5131669;27;20043;-71
2022/06/05 02:24:36;;;;;;;10.55;6.55;;;11.80;99.90;;;;;;5131135;27;20043;-71
2022/06/05 02:27:04;;;;;;;10.18;7.05;;;12.30;99.90;;;;;;5130954;27;20051;-71
2022/06/05 02:29:30;;;;;;;14.13;7.47;;;11.80;99.90;;;;;;5131773;27;20470;-71
2022/06/05 02:32:14;;;;;;;;;;;11.80;99.90;;;;;;5123597;27;20039;-71
2022/06/05 02:34:56;;;;;;;12.32;7.38;;;11.90;99.90;;;;;;5131697;27;19926;-71
2022/06/05 02:37:44;;;;;;;13.18;7.68;;;12.70;99.90;;;;;;5115324;27;20109;-71
2022/06/05 02:40:25;;;;;;;13.27;7.90;;;11.80;99.90;;;;;;5131538;27;20133;-71
2022/06/05 02:43:26;;;;;;;11.25;7.78;;;11.80;99.90;;;;;;5131624;27;20483;-71
2022/06/05 02:46:08;;;;;;;12.43;7.75;;;11.80;99.90;;;;;;5130991;28;20078;-71
2022/06/05 02:48:58;;;;;;;15.18;8.82;;;11.80;99.90;;;;;;5133003;27;20043;-71
2022/06/05 02:51:35;;;;;;;15.18;7.88;;;11.80;99.90;;;;;;5132027;27;20510;-71
2022/06/05 02:54:01;;;;;;;12.70;7.82;;;11.80;99.90;;;;;;5117570;28;20396;-71
2022/06/05 02:56:28;;;;;;;;;;;11.80;99.90;;;;;;5111150;28;20044;-71
2022/06/05 02:58:56;;;;;;;;;;;11.80;99.90;;;;;;5110985;28;19939;-71
2022/06/05 03:04:10;;;;;;;14.52;7.88;;;11.80;99.90;;;;;;5110615;28;20047;-71
2022/06/05 03:06:38;;;;;;;11.35;7.72;;;11.90;99.90;;;;;;5112259;28;20039;-71
2022/06/05 03:09:04;;;;;;;14.23;8.27;;;11.90;99.90;;;;;;5114962;28;20126;-70
2022/06/05 03:11:31;;;;;;;15.57;9.10;;;11.90;99.90;;;;;;5136441;27;20031;-71
2022/06/05 03:13:57;;;;;;;14.15;7.93;;;11.80;99.90;;;;;;5134934;27;20054;-71
2022/06/05 03:16:24;;;;;;;11.82;7.72;;;12.10;99.90;;;;;;5136462;27;20069;-71
2022/06/05 03:18:50;;;;;;;15.30;8.45;;;11.90;99.90;;;;;;5135234;27;20414;-71
2022/06/05 03:21:15;;;;;;;;;;;11.90;99.90;;;;;;5134755;27;20043;-70
2022/06/05 03:23:41;;;;;;;15.05;8.82;;;11.90;99.90;;;;;;5134635;27;19923;-71
2022/06/05 03:26:12;;;;;;;;;;;11.90;99.90;;;;;;5135393;27;20043;-71
2022/06/05 03:28:39;;;;;;;14.20;8.43;;;12.40;99.90;;;;;;5135052;27;20333;-71
2022/06/05 03:31:06;;;;;;;14.27;8.73;;;11.90;99.90;;;;;;5136432;27;20120;-71
2022/06/05 03:33:32;;;;;;;18.05;9.05;;;11.90;99.90;;;;;;5133560;27;20393;-71
2022/06/05 03:35:57;;;;;;;;;;;11.90;99.90;;;;;;5136879;27;20126;-71
2022/06/05 03:38:23;;;;;;;16.25;9.20;;;12.00;99.90;;;;;;5135904;27;19984;-71
2022/06/05 03:40:49;;;;;;;;;;;11.90;99.90;;;;;;5121158;27;20049;-71
2022/06/05 03:43:15;;;;;;;18.65;9.60;;;12.00;99.90;;;;;;5115450;28;19984;-71
2022/06/05 03:45:41;;;;;;;16.85;8.88;;;12.00;99.90;;;;;;5094918;28;20094;-71
2022/06/05 03:48:08;;;;;;;15.77;8.48;;;12.10;99.90;;;;;;5092943;28;20071;-71
2022/06/05 03:50:37;;;;;;;13.57;7.93;;;12.10;99.90;;;;;;5095021;28;20059;-71
2022/06/05 03:53:02;;;;;;;15.40;7.80;;;12.10;99.90;;;;;;5099989;28;20038;-71
2022/06/05 03:55:28;;;;;;;;;;;12.10;99.90;;;;;;5114854;28;20055;-71
2022/06/05 03:57:53;;;;;;;15.73;8.30;;;12.10;99.90;;;;;;5115400;28;20385;-71
2022/06/05 04:00:20;;;;;;;;;;;12.10;99.90;;;;;;5114488;28;20056;-71
2022/06/05 04:02:47;;;;;;;14.60;8.05;;;12.10;99.90;;;;;;5114409;28;19930;-71
2022/06/05 04:05:16;;;;;;;11.02;7.88;;;12.10;99.90;;;;;;5113657;28;20040;-71
2022/06/05 04:07:42;;;;;;;19.95;9.35;;;12.20;99.90;;;;;;5113387;28;20130;-71
2022/06/05 04:10:07;;;;;;;;;;;12.20;99.90;;;;;;5111913;28;20122;-70
2022/06/05 04:12:33;;;;;;;17.98;10.25;;;12.20;99.90;;;;;;5115196;27;19922;-71
2022/06/05 04:15:02;;;;;;;17.48;10.40;;;12.30;99.90;;;;;;5113664;28;20050;-71
2022/06/05 04:17:28;;;;;;;16.63;9.75;;;12.30;99.90;;;;;;5112680;28;20047;-71
2022/06/05 04:19:54;;;;;;;;;;;12.40;99.90;;;;;;5114052;28;20184;-71
2022/06/05 04:22:20;;;;;;;18.80;11.13;;;12.40;99.90;;;;;;5112807;28;19931;-71
2022/06/05 04:24:46;;;;;;;17.30;10.13;;;12.40;99.90;;;;;;5112789;28;20121;-71
2022/06/05 04:27:11;;;;;;;;;;;12.40;99.90;;;;;;5113891;28;20047;-71
2022/06/05 04:29:37;;;;;;;13.43;8.13;;;12.50;99.90;;;;;;5112645;28;19926;-71
2022/06/05 04:32:03;;;;;;;;;;;12.50;99.90;;;;;;5115080;28;20118;-71
2022/06/05 04:34:28;;;;;;;17.02;8.10;;;12.60;99.90;;;;;;5113073;28;19930;-71
2022/06/05 04:36:54;;;;;;;14.23;8.00;;;12.70;99.90;;;;;;5112714;28;20039;-71
2022/06/05 04:39:19;;;;;;;;;;;12.70;99.90;;;;;;5113067;28;20043;-71
2022/06/05 04:41:46;;;;;;;12.80;7.82;;;12.70;99.90;;;;;;5113658;28;19920;-71
2022/06/05 04:44:13;;;;;;;14.27;7.97;;;12.80;99.90;;;;;;5126633;27;20086;-71
2022/06/05 04:46:39;;;;;;;14.15;7.85;;;12.80;99.90;;;;;;5137325;27;20051;-71
2022/06/05 04:49:08;;;;;;;;;;;12.80;99.90;;;;;;5137652;27;20102;-71
2022/06/05 04:51:36;;;;;;;14.63;7.15;;;12.90;99.90;;;;;;5136178;27;19967;-71
2022/06/05 04:54:03;;;;;;;15.70;8.13;;;12.90;99.90;;;;;;5135118;27;20145;-71
2022/06/05 04:56:30;;;;;;;18.38;7.35;;;13.00;99.90;;;;;;5137046;27;20042;-71
2022/06/05 04:58:56;;;;;;;15.18;7.38;;;12.90;99.90;;;;;;5136115;27;20134;-71
2022/06/05 05:01:26;;;;;;;12.65;7.50;;;13.00;99.90;;;;;;5136590;27;20042;-71
2022/06/05 05:03:56;;;;;;;12.35;7.38;;;13.10;99.90;;;;;;5136676;27;20050;-71
2022/06/05 05:06:22;;;;;;;13.30;7.90;;;13.10;99.90;;;;;;5135946;27;20527;-71
2022/06/05 05:08:48;;;;;;;15.52;8.18;;;13.20;99.90;;;;;;5129758;27;20050;-71
2022/06/05 05:11:14;;;;;;;;;;;13.20;99.90;;;;;;5116379;27;20035;-71
2022/06/05 05:13:41;;;;;;;16.45;7.78;;;13.30;99.90;;;;;;5133599;27;20365;-71
2022/06/05 05:16:07;;;;;;;13.20;7.38;;;13.30;99.90;;;;;;5115708;27;20125;-71
2022/06/05 05:18:34;;;;;;;14.48;7.55;;;13.40;99.90;;;;;;5115614;27;20047;-72
2022/06/05 05:21:11;;;;;;;13.45;8.18;;;13.50;99.90;;;;;;5115544;27;20053;-71
2022/06/05 05:23:37;;;;;;;13.23;7.63;;;13.50;99.90;;;;;;5116833;27;20093;-71
2022/06/05 05:26:06;;;;;;;;;;;13.60;99.90;;;;;;5115152;27;20063;-71
2022/06/05 05:28:31;;;;;;;12.88;8.18;;;13.70;99.90;;;;;;5114851;27;19980;-71
2022/06/05 05:30:57;;;;;;;;;;;13.80;99.90;;;;;;5116248;27;20491;-69
2022/06/05 05:33:22;;;;;;;13.73;7.40;;;13.80;99.90;;;;;;5114921;27;19919;-71
2022/06/05 05:35:48;;;;;;;14.63;8.15;;;13.90;99.90;;;;;;5115845;27;20043;-71
2022/06/05 05:38:13;;;;;;;15.23;7.90;;;14.00;99.90;;;;;;5115234;27;20035;-71
2022/06/05 05:43:23;;;;;;;12.98;7.20;;;14.10;99.90;;;;;;5135672;27;20473;-71
2022/06/05 05:45:49;;;;;;;;;;;14.20;99.90;;;;;;5136145;27;20104;-71
2022/06/05 05:48:17;;;;;;;13.13;7.80;;;14.20;99.90;;;;;;5134541;27;19929;-71
2022/06/05 05:50:45;;;;;;;15.60;7.68;;;14.20;99.90;;;;;;5139593;27;20447;-71
2022/06/05 05:53:11;;;;;;;13.25;7.82;;;14.30;99.90;;;;;;5125705;27;20133;-71
2022/06/05 05:55:37;;;;;;;13.00;7.80;;;14.30;99.90;;;;;;5138436;27;20039;-71
2022/06/05 05:58:03;;;;;;;12.15;7.28;;;14.50;99.90;;;;;;5131382;27;20080;-70
2022/06/05 06:00:29;;;;;;;12.52;7.78;;;14.50;99.90;;;;;;5126736;27;20054;-70
2022/06/05 06:02:54;;;;;;;;;;;14.60;99.90;;;;;;5114806;27;20055;-70
2022/06/05 06:05:20;;;;;;;13.15;7.63;;;14.70;99.90;;;;;;5133389;27;19919;-71
2022/06/05 06:07:46;;;;;;;12.07;7.30;;;14.70;99.90;;;;;;5114895;27;20481;-69
2022/06/05 06:10:13;;;;;;;14.82;7.43;;;14.80;99.90;;;;;;5118207;27;20034;-70
2022/06/05 06:12:38;;;;;;;12.75;7.70;;;14.90;99.90;;;;;;5135249;27;20042;-71
2022/06/05 06:15:05;;;;;;;12.75;7.28;;;15.00;99.90;;;;;;5133395;27;20069;-72
2022/06/05 06:17:30;;;;;;;12.88;7.10;;;15.10;99.90;;;;;;5114198;27;20385;-69
2022/06/05 06:19:57;;;;;;;11.43;7.10;;;15.20;99.90;;;;;;5122258;27;20039;-70
2022/06/05 06:22:22;;;;;;;10.85;7.43;;;15.30;99.90;;;;;;5122407;27;20041;-69
2022/06/05 06:24:48;;;;;;;13.52;6.90;;;15.40;99.90;;;;;;5148345;27;20039;-69
2022/06/05 06:27:14;;;;;;;13.35;7.60;;;15.50;99.90;;;;;;5149533;27;20099;-70
2022/06/05 06:29:39;;;;;;;11.02;7.43;;;15.60;99.90;;;;;;5113684;27;20027;-69
2022/06/05 06:32:06;;;;;;;12.15;6.80;;;15.60;99.90;;;;;;5142209;27;20047;-69
2022/06/05 06:34:33;;;;;;;12.27;7.30;;;15.70;99.90;;;;;;5140314;27;20042;-69
2022/06/05 06:37:03;;;;;;;11.23;7.38;;;15.80;99.90;;;;;;5130256;27;20489;-69
2022/06/05 06:39:28;;;;;;;14.88;8.10;;;15.90;99.90;;;;;;5117896;27;20045;-69
2022/06/05 06:41:54;;;;;;;14.45;7.78;;;15.90;99.90;;;;;;5128586;27;20043;-69
2022/06/05 06:44:20;;;;;;;12.52;7.85;;;15.90;99.90;;;;;;5124940;27;20057;-69
2022/06/05 06:46:46;;;;;;;12.85;7.05;;;15.90;99.90;;;;;;5119020;28;20039;-69
2022/06/05 06:49:12;;;;;;;14.55;7.45;;;16.00;99.90;;;;;;5115615;27;20043;-70
2022/06/05 06:51:38;;;;;;;12.73;7.15;;;16.00;99.90;;;;;;5128711;28;20046;-69
2022/06/05 06:54:04;;;;;;;12.27;7.30;;;16.10;99.90;;;;;;5123259;27;20511;-69
2022/06/05 06:56:35;;;;;;;12.45;7.40;;;16.20;99.90;;;;;;5121859;28;20035;-69
2022/06/05 06:59:02;;;;;;;11.48;7.18;;;16.20;99.90;;;;;;5130096;27;20057;-70
2022/06/05 07:01:28;;;;;;;12.77;7.50;;;16.20;99.90;;;;;;5118277;27;20129;-69
2022/06/05 07:03:53;;;;;;;15.15;7.40;;;16.20;99.90;;;;;;5126910;28;20135;-69
2022/06/05 07:06:22;;;;;;;14.30;7.38;;;16.30;99.90;;;;;;5133986;27;20042;-70
2022/06/05 07:08:49;;;;;;;13.35;7.65;;;16.40;99.90;;;;;;5129316;27;20133;-70
2022/06/05 07:11:15;;;;;;;12.57;7.47;;;16.50;99.90;;;;;;5114765;28;20492;-69
2022/06/05 07:13:41;;;;;;;13.27;7.15;;;16.60;99.90;;;;;;5114494;27;20066;-69
2022/06/05 07:16:09;;;;;;;12.85;7.50;;;16.70;99.90;;;;;;5134299;27;20043;-69
2022/06/05 07:18:35;;;;;;;12.25;7.20;;;16.90;99.90;;;;;;5133962;27;20062;-69
2022/06/05 07:21:12;;;;;;;13.73;7.45;;;17.10;99.90;;;;;;5129001;28;20046;-69
2022/06/05 07:23:37;;;;;;;12.07;6.93;;;17.10;99.90;;;;;;5115393;28;20180;-73
2022/06/05 07:26:06;;;;;;;12.90;7.55;;;17.20;99.90;;;;;;5143093;27;20129;-69
2022/06/05 07:28:31;;;;;;;11.90;7.57;;;17.40;99.90;;;;;;5114064;28;20039;-69
2022/06/05 07:31:00;;;;;;;10.38;6.80;;;17.60;99.90;;;;;;5132569;28;20043;-69
2022/06/05 07:33:26;;;;;;;12.45;7.05;;;17.80;99.90;;;;;;5131658;28;20520;-69
2022/06/05 07:35:56;;;;;;;9.93;6.95;;;17.90;99.90;;;;;;5113952;28;20136;-69
2022/06/05 07:38:22;;;;;;;13.10;6.90;;;18.10;99.90;;;;;;5113929;28;20056;-68
2022/06/05 07:40:47;;;;;;;9.98;6.55;;;18.40;99.90;;;;;;5114473;28;20047;-69
2022/06/05 07:43:13;;;;;;;10.13;6.72;;;18.60;99.90;;;;;;5132058;28;20035;-69
2022/06/05 07:45:42;;;;;;;10.73;6.97;;;18.70;99.90;;;;;;5113533;28;20542;-69
2022/06/05 07:48:08;;;;;;;12.18;7.13;;;18.80;99.90;;;;;;5112971;28;20047;-78
2022/06/05 07:50:34;;;;;;;10.27;6.82;;;18.90;99.90;;;;;;5114118;28;20501;-71
2022/06/05 07:55:44;;;;;;;13.45;6.85;;;19.40;99.90;;;;;;5118686;27;20054;-71
2022/06/05 07:58:09;;;;;;;10.55;6.78;;;19.50;99.90;;;;;;5117375;27;20520;-76
2022/06/05 08:00:35;;;;;;;10.98;7.00;;;19.60;99.90;;;;;;5116602;27;20055;-73
2022/06/05 08:03:00;;;;;;;11.45;6.88;;;19.80;99.90;;;;;;5117112;27;20041;-75
2022/06/05 08:05:26;;;;;;;12.50;7.22;;;20.10;99.90;;;;;;5117340;27;20046;-72
2022/06/05 08:07:52;;;;;;;9.25;6.68;;;20.30;99.90;;;;;;5116470;27;20039;-76
2022/06/05 08:10:21;;;;;;;8.90;6.88;;;20.50;99.90;;;;;;5116881;27;20047;-82
2022/06/05 08:12:48;;;;;;;11.90;7.15;;;20.50;99.90;;;;;;5118404;27;20046;-75
2022/06/05 08:15:14;;;;;;;9.50;6.68;;;20.50;99.90;;;;;;5116394;27;20046;-73
2022/06/05 08:17:40;;;;;;;9.90;6.60;;;20.40;99.90;;;;;;5116662;27;20122;-73
2022/06/05 08:20:08;;;;;;;10.38;6.78;;;20.30;99.90;;;;;;5117014;27;20051;-70
2022/06/05 08:22:34;;;;;;;8.18;6.75;;;20.30;99.90;;;;;;5115089;27;20039;-74
2022/06/05 08:25:00;;;;;;;8.77;6.55;;;20.20;99.90;;;;;;5116645;27;20099;-77
2022/06/05 08:27:27;;;;;;;9.38;6.68;;;20.20;99.90;;;;;;5117853;27;20137;-70
2022/06/05 08:29:55;;;;;;;11.95;7.10;;;20.30;99.90;;;;;;5116272;27;20088;-68
2022/06/05 08:32:22;;;;;;;10.25;6.97;;;20.50;99.90;;;;;;5118817;27;20047;-71
2022/06/05 08:34:48;;;;;;;9.68;6.75;;;20.70;99.90;;;;;;5137643;27;20125;-72
2022/06/05 08:43:12;;;;;;;9.52;6.88;;;20.80;99.90;;;;;;5121377;27;20043;-71
2022/06/05 08:46:12;;;;;;;9.02;6.45;;;20.70;99.90;;;;;;5134747;27;20051;-73
2022/06/05 08:48:52;;;;;;;9.43;7.28;;;20.60;99.90;;;;;;5110913;27;20055;-81
2022/06/05 08:51:34;;;;;;;10.43;6.43;;;20.60;99.90;;;;;;5113970;27;20069;-76
2022/06/05 08:54:05;;;;;;;9.70;6.75;;;20.50;99.90;;;;;;5142871;27;20087;-77
2022/06/05 08:56:37;;;;;;;9.65;7.30;;;20.50;99.90;;;;;;5111741;27;20031;-75
2022/06/05 08:59:40;;;;;;;8.75;6.53;;;20.50;99.90;;;;;;5123657;27;20072;-76
2022/06/05 09:02:21;;;;;;;9.10;7.10;;;20.60;99.90;;;;;;5104084;27;20055;-77
2022/06/05 09:05:01;;;;;;;8.82;6.25;;;20.80;99.90;;;;;;5142187;27;20136;-74
2022/06/05 09:07:57;;;;;;;9.85;7.00;;;20.90;99.90;;;;;;5112954;27;20047;-72
2022/06/05 09:10:34;;;;;;;9.60;7.18;;;20.90;99.90;;;;;;5124437;27;20051;-73
2022/06/05 09:13:07;;;;;;;10.05;7.13;;;21.10;99.90;;;;;;5122769;27;20046;-73
2022/06/05 09:15:54;;;;;;;8.82;6.78;;;21.30;99.90;;;;;;5125091;27;20035;-74
2022/06/05 09:18:22;;;;;;;7.75;6.38;;;21.50;99.90;;;;;;5133502;27;20061;-76
2022/06/05 09:20:55;;;;;;;9.30;6.72;;;21.60;99.90;;;;;;5142525;27;20100;-74
2022/06/05 09:23:39;;;;;;;10.07;6.75;;;21.90;99.90;;;;;;5119783;27;20053;-75
2022/06/05 09:26:10;;;;;;;9.93;7.13;;;22.10;99.90;;;;;;5119322;27;20047;-74
2022/06/05 09:28:44;;;;;;;11.45;7.10;;;22.20;99.90;;;;;;5119369;27;20047;-73
2022/06/05 09:31:19;;;;;;;9.32;6.72;;;22.40;99.90;;;;;;5118867;27;20038;-73
2022/06/05 09:33:46;;;;;;;8.75;6.90;;;22.60;99.90;;;;;;5119091;27;20498;-74
2022/06/05 09:36:16;;;;;;;10.23;7.47;;;22.80;99.90;;;;;;5112819;27;20057;-73
2022/06/05 09:38:53;;;;;;;11.55;6.85;;;22.70;99.90;;;;;;5124478;27;20046;-74
2022/06/05 09:41:56;;;;;;;8.93;6.90;;;22.60;99.90;;;;;;5126885;27;20638;-72
2022/06/05 09:44:45;;;;;;;10.07;6.85;;;22.80;99.90;;;;;;5124620;27;20120;-72
2022/06/05 09:47:28;;;;;;;8.85;6.72;;;22.90;99.90;;;;;;5126092;27;20050;-75
2022/06/05 09:49:59;;;;;;;8.43;6.68;;;23.10;99.90;;;;;;5136651;27;20046;-75
2022/06/05 09:52:28;;;;;;;8.73;7.05;;;23.10;99.90;;;;;;5117930;27;20082;-73
2022/06/05 09:55:06;;;;;;;8.85;6.57;;;23.30;99.90;;;;;;5136183;27;20035;-77
2022/06/05 10:00:37;;;;;;;9.38;7.35;;;23.20;99.90;;;;;;5125653;27;20164;-75
2022/06/05 10:03:11;;;;;;;9.18;6.57;;;22.80;99.90;;;;;;5128779;27;20130;-70
2022/06/05 10:05:40;;;;;;;8.40;6.70;;;22.70;99.90;;;;;;5114410;27;20043;-70
2022/06/05 10:08:41;;;;;;;11.20;7.10;;;22.50;99.90;;;;;;5124820;27;20479;-71
2022/06/05 10:11:24;;;;;;;7.45;5.93;;;22.30;99.90;;;;;;5116502;27;20122;-70
2022/06/05 10:14:15;;;;;;;6.85;5.35;;;22.20;99.90;;;;;;5132539;27;20046;-70
2022/06/05 10:17:06;;;;;;;10.45;6.18;;;22.20;99.90;;;;;;5118299;27;20065;-70
2022/06/05 10:19:45;;;;;;;7.47;6.43;;;22.10;99.90;;;;;;5114363;27;20505;-69
2022/06/05 10:22:19;;;;;;;8.82;6.97;;;22.00;99.90;;;;;;5131824;27;20055;-71
2022/06/05 10:25:22;;;;;;;9.82;6.43;;;22.00;99.90;;;;;;5147590;27;20505;-72
2022/06/05 10:28:02;;;;;;;9.93;6.47;;;22.00;99.90;;;;;;5153259;27;20436;-71
2022/06/05 10:30:33;;;;;;;8.98;6.70;;;21.90;99.90;;;;;;5142344;27;20048;-70
2022/06/05 10:33:05;;;;;;;10.57;6.20;;;21.90;99.90;;;;;;5133190;27;20138;-73
2022/06/05 10:36:07;;;;;;;8.77;6.40;;;21.90;99.90;;;;;;5125465;27;20027;-70
2022/06/05 10:39:03;;;;;;;8.95;6.43;;;21.90;99.90;;;;;;5119389;27;20053;-68
2022/06/05 10:41:41;;;;;;;9.02;6.40;;;21.80;99.90;;;;;;5125612;27;20093;-70
2022/06/05 10:44:17;;;;;;;7.45;5.63;;;21.80;99.90;;;;;;5135779;27;20051;-71
2022/06/05 10:47:03;;;;;;;9.90;6.60;;;21.70;99.90;;;;;;5147359;27;20051;-70
2022/06/05 10:49:33;;;;;;;;;;;21.80;99.90;;;;;;5124412;28;20043;-71
2022/06/05 10:52:20;;;;;;;8.95;6.20;;;21.70;99.90;;;;;;5125456;27;20427;-75
2022/06/05 10:54:59;;;;;;;8.35;5.82;;;21.80;99.90;;;;;;5126862;27;20046;-73
2022/06/05 10:57:39;;;;;;;9.25;6.75;;;21.90;99.90;;;;;;5146074;27;20635;-76
2022/06/05 11:00:22;;;;;;;10.55;6.80;;;21.90;99.90;;;;;;5124275;27;20034;-74
2022/06/05 11:03:19;;;;;;;8.80;6.35;;;22.00;99.90;;;;;;5122850;27;20043;-75
2022/06/05 11:06:18;;;;;;;9.85;7.38;;;22.10;99.90;;;;;;5140765;27;20092;-74
2022/06/05 11:08:57;;;;;;;12.25;7.60;;;22.20;99.90;;;;;;5083634;27;20428;-74
2022/06/05 11:14:46;;;;;;;11.45;8.40;;;22.10;99.90;;;;;;5120691;27;20051;-73
2022/06/05 11:17:18;;;;;;;12.30;7.72;;;22.20;99.90;;;;;;5128900;27;20064;-73
2022/06/05 11:19:57;;;;;;;9.10;7.38;;;22.10;99.90;;;;;;5124305;28;20127;-73
2022/06/05 11:22:24;;;;;;;12.07;8.00;;;22.10;99.90;;;;;;5114015;28;20043;-71
2022/06/05 11:24:53;;;;;;;10.00;7.90;;;22.20;99.90;;;;;;5114929;27;20544;-70
2022/06/05 11:27:39;;;;;;;10.93;7.68;;;22.10;99.90;;;;;;5117867;27;20039;-71
2022/06/05 11:30:14;;;;;;;9.20;7.60;;;22.10;99.90;;;;;;5136169;27;20070;-75
2022/06/05 11:33:15;;;;;;;10.23;7.72;;;22.10;99.90;;;;;;5136825;27;20567;-83
2022/06/05 11:36:04;;;;;;;8.68;6.80;;;22.10;99.90;;;;;;5132130;27;20371;-74
2022/06/05 11:39:06;;;;;;;10.82;8.27;;;22.20;99.90;;;;;;5125646;27;20084;-77
2022/06/05 11:41:46;;;;;;;11.63;7.78;;;22.20;99.90;;;;;;5127406;27;20051;-77
2022/06/05 11:44:33;;;;;;;13.63;7.60;;;22.20;99.90;;;;;;5139425;27;20055;-72
2022/06/05 11:47:02;;;;;;;11.60;7.90;;;22.20;99.90;;;;;;5140287;27;20043;-73
2022/06/05 11:49:43;;;;;;;11.57;7.45;;;22.30;99.90;;;;;;5134095;27;20137;-73
2022/06/05 11:52:29;;;;;;;11.63;7.82;;;22.20;99.90;;;;;;5145922;27;20042;-72
2022/06/05 11:55:13;;;;;;;9.38;7.30;;;22.20;99.90;;;;;;5113593;27;20125;-75
2022/06/05 11:57:49;;;;;;;11.02;8.05;;;22.20;99.90;;;;;;5143874;27;20046;-73
2022/06/05 12:00:27;;;;;;;10.68;8.00;;;22.20;99.90;;;;;;5129156;27;20052;-80
2022/06/05 12:02:55;;;;;;;13.10;7.68;;;22.20;99.90;;;;;;5156713;27;20070;-79
2022/06/05 12:05:44;;;;;;;10.45;7.40;;;22.20;99.90;;;;;;5128253;27;20398;-85
2022/06/05 12:08:19;;;;;;;17.23;7.53;;;22.30;99.90;;;;;;5151632;27;20078;-74
2022/06/05 12:10:53;;;;;;;11.40;6.75;;;22.30;99.90;;;;;;5135761;27;20367;-80
2022/06/05 12:13:41;;;;;;;10.40;7.32;;;22.40;99.90;;;;;;5124115;27;20050;-76
2022/06/05 12:16:25;;;;;;;9.50;7.28;;;22.30;99.90;;;;;;5126103;27;20409;-78
2022/06/05 12:18:57;;;;;;;11.55;7.60;;;22.30;99.90;;;;;;5126225;27;20073;-78
2022/06/05 12:21:33;;;;;;;11.13;7.97;;;22.30;99.90;;;;;;5150135;27;20095;-75
2022/06/05 12:24:05;;;;;;;12.27;7.70;;;22.30;99.90;;;;;;5122070;27;20043;-79
2022/06/05 12:26:34;;;;;;;10.07;7.70;;;22.20;99.90;;;;;;5135747;27;20058;-76
2022/06/05 12:29:08;;;;;;;11.60;7.55;;;22.20;99.90;;;;;;5152039;27;20508;-78
2022/06/05 12:31:39;;;;;;;12.57;8.60;;;22.10;99.90;;;;;;5136230;27;20533;-80
2022/06/05 12:34:19;;;;;;;10.68;7.78;;;22.00;99.90;;;;;;5156126;27;20440;-79
2022/06/05 12:37:03;;;;;;;11.40;7.93;;;21.90;99.90;;;;;;5135848;27;20052;-77
2022/06/05 12:39:33;;;;;;;12.30;7.88;;;21.90;99.90;;;;;;5123417;27;20055;-83
2022/06/05 12:42:27;;;;;;;13.73;7.68;;;21.80;99.90;;;;;;5128138;27;20054;-87
2022/06/05 12:44:56;;;;;;;12.02;8.27;;;21.70;99.90;;;;;;5141825;27;20117;-83
2022/06/05 12:47:58;;;;;;;14.20;8.07;;;21.60;99.90;;;;;;5155294;27;20043;-75
2022/06/05 12:50:46;;;;;;;13.23;7.97;;;21.60;99.90;;;;;;5153739;27;20039;-83
2022/06/05 12:53:12;;;;;;;11.40;8.25;;;21.50;99.90;;;;;;5127401;27;20030;-88
2022/06/05 12:55:46;;;;;;;16.90;8.73;;;21.50;99.90;;;;;;5135074;27;20397;-85
2022/06/05 12:58:37;;;;;;;28.05;9.18;;;21.50;99.90;;;;;;5124625;27;20039;-78
2022/06/05 13:01:18;;;;;;;15.85;8.32;;;21.60;99.90;;;;;;5125344;27;20049;-73
2022/06/05 13:03:56;;;;;;;12.30;7.70;;;21.60;99.90;;;;;;5126824;27;20042;-78
2022/06/05 13:06:28;;;;;;;13.38;8.35;;;21.60;99.90;;;;;;5155001;27;20464;-70
2022/06/05 13:09:04;;;;;;;11.07;8.05;;;21.60;99.90;;;;;;5120035;27;20047;-73
2022/06/05 13:12:25;;;;;;;11.77;8.02;;;21.70;99.90;;;;;;5122242;27;20574;-71
2022/06/05 13:15:17;;;;;;;14.57;7.93;;;21.70;99.90;;;;;;5107399;27;20054;-72
2022/06/05 13:17:56;;;;;;;12.18;8.50;;;21.80;99.90;;;;;;5116010;27;20059;-67
2022/06/05 13:20:39;;;;;;;18.88;8.15;;;21.90;99.90;;;;;;5132490;27;20042;-71
2022/06/05 13:23:26;;;;;;;14.60;8.30;;;22.00;99.90;;;;;;5127946;27;20126;-73
2022/06/05 13:26:15;;;;;;;12.05;7.22;;;22.20;99.90;;;;;;5132719;27;20050;-69
2022/06/05 13:28:53;;;;;;;13.88;7.50;;;22.30;99.90;;;;;;5155149;27;20405;-72
2022/06/05 13:31:28;;;;;;;10.88;7.28;;;22.50;99.90;;;;;;5134838;27;20126;-73
2022/06/05 13:34:12;;;;;;;11.90;7.93;;;22.50;99.90;;;;;;5133909;27;20039;-74
2022/06/05 13:37:11;;;;;;;11.98;7.50;;;22.60;99.90;;;;;;5154376;27;20053;-69
2022/06/05 13:40:05;;;;;;;12.35;8.00;;;22.40;99.90;;;;;;5118830;27;20046;-72
2022/06/05 13:42:35;;;;;;;11.32;7.45;;;22.30;99.90;;;;;;5142378;27;20134;-78